Sandspit Airport
CYZP : now visible

Airfield :











YOU CAN JOIN US ON...

 
LOGIN :

Register | Disclaimer

   EN    FR    IT 

 









Legend :    VFR   Marginal VFR   IFR   Intensive IFR   Very Intensive IFR
Visi :
Ceiling :
>= 8 km
>= 3000ft
5 to 8 km
1000 to 3000 ft
1500m to 5 km
500 to 1000 ft
800 to 1500m
200 to 500 ft
< 800m
< 200 ft
Symbols :   Thunderstorms  Fog  Heavy snow  Heavy precipitations  Wind > 20 kt






- Airport Elevation : 21 ft
- IATA code : YZP


CYZP - Sandspit

CURRENT METAR :
  • 060400Z AUTO 14009KT 3/8SM -RA FG VV002 13/12 A3028 RMK SLP255

EXPIRED METARs :
  • 060346Z AUTO 13010KT 1/2SM -RA FG BKN002 13/12 A3027 RMK SLP253
  • 060333Z AUTO 14010KT 3/4SM BR BKN002 13/12 A3027 RMK SLP252
  • 060307Z AUTO 13008KT 9SM FEW002 13/12 A3026 RMK SLP249
  • 060234Z AUTO 15008KT 3SM BR BKN002 13/13 A3025 RMK SLP247
  • 060225Z AUTO 15008KT 1 1/2SM BR SCT002 13/13 A3025 RMK SLP246

TAF AMD TAF CYZP
Valid from the 06 at 04:00 until the 06 at 13:00 UTC


060409Z 0604/0613 14009KT 3SM BR SCT002
TEMPO 0604/0613 1/2SM -DZ FG VV002 RMK FCST BASED ON AUTO OBS. NXT FCST BY 060700Z
CZVR FIR / North America



MET'MAP, your aeronautical weather chart ! - Copyright ORBIFLY December 2007 - Disclaimer

ORBIFLY MET'MAP TEAM :

Programming & Development : Alexandra Zaïnal
Original concept : Baudouin d'Aumeries
Technical & hardware support : Manuel Goepfert
Assistance : Marc-Olivier Méhu




SOURCES & CREDITS :

   NOAA       Earth
Advisory